AAR133 RJFF-RKSI
Flight info
| Callsign | AAR133 |
|---|---|
| Flight time | 0h 58m |
| Altitude | 28000 |
| Route | HAKAT5 DGC G339 BEETL Y208 INVOK Z91 PSN Y782 BITUX Z53 BASEM Y685 GUKDO GUKDO2E |
| Aircraft | A321/M-SDE3FGHIRWY/LB1 |
Departure
| Time | 2026-05-08 09:37 |
|---|---|
| Airport | Fukuoka Airport (RJFF) |
Arrival
| Time | 2026-05-08 10:35 |
|---|---|
| Airport | Incheon International Airport (RKSI) |
| Time | Latitude | Longitude | Altitude | Speed | Heading |
|---|---|---|---|---|---|
| 2026-05-08 09:22 | 33.58627 | 130.44457 | 32 ft | 0 kts | 240° |
| 2026-05-08 09:28 | 33.58629 | 130.44461 | 32 ft | 2 kts | 240° |
| 2026-05-08 09:28 | 33.58638 | 130.44481 | 32 ft | 3 kts | 240° |
| 2026-05-08 09:28 | 33.58648 | 130.44502 | 32 ft | 3 kts | 240° |
| 2026-05-08 09:29 | 33.58658 | 130.44524 | 30 ft | 3 kts | 240° |
| 2026-05-08 09:29 | 33.58668 | 130.44545 | 32 ft | 3 kts | 241° |
| 2026-05-08 09:29 | 33.58678 | 130.44566 | 33 ft | 3 kts | 241° |
| 2026-05-08 09:29 | 33.58686 | 130.44583 | 31 ft | 3 kts | 237° |
| 2026-05-08 09:30 | 33.58697 | 130.44599 | 34 ft | 3 kts | 198° |
| 2026-05-08 09:30 | 33.58713 | 130.44600 | 35 ft | 3 kts | 158° |
| 2026-05-08 09:30 | 33.58726 | 130.44593 | 33 ft | 1 kts | 151° |
| 2026-05-08 09:33 | 33.58725 | 130.44594 | 33 ft | 2 kts | 151° |
| 2026-05-08 09:33 | 33.58686 | 130.44620 | 34 ft | 12 kts | 151° |
| 2026-05-08 09:34 | 33.58599 | 130.44678 | 37 ft | 15 kts | 150° |
| 2026-05-08 09:34 | 33.58494 | 130.44747 | 37 ft | 21 kts | 151° |
| 2026-05-08 09:34 | 33.58361 | 130.44836 | 37 ft | 22 kts | 151° |
| 2026-05-08 09:34 | 33.58220 | 130.44931 | 37 ft | 24 kts | 150° |
| 2026-05-08 09:35 | 33.58079 | 130.45026 | 37 ft | 22 kts | 150° |
| 2026-05-08 09:35 | 33.57947 | 130.45114 | 37 ft | 22 kts | 150° |
| 2026-05-08 09:35 | 33.57840 | 130.45189 | 37 ft | 13 kts | 153° |
| 2026-05-08 09:35 | 33.57793 | 130.45259 | 40 ft | 10 kts | 84° |
| 2026-05-08 09:36 | 33.57826 | 130.45322 | 40 ft | 8 kts | 21° |
| 2026-05-08 09:36 | 33.57876 | 130.45304 | 40 ft | 2 kts | 331° |
| 2026-05-08 09:36 | 33.57883 | 130.45299 | 38 ft | 8 kts | 331° |
| 2026-05-08 09:36 | 33.58188 | 130.45090 | 39 ft | 95 kts | 330° |
| 2026-05-08 09:37 | 33.58982 | 130.44543 | 53 ft | 164 kts | 326° |
| 2026-05-08 09:37 | 33.59664 | 130.44061 | 414 ft | 178 kts | 326° |
| 2026-05-08 09:37 | 33.60769 | 130.43327 | 1333 ft | 184 kts | 328° |
| 2026-05-08 09:37 | 33.61903 | 130.42617 | 2134 ft | 186 kts | 328° |
| 2026-05-08 09:38 | 33.63103 | 130.41851 | 2361 ft | 206 kts | 328° |
| 2026-05-08 09:38 | 33.64446 | 130.40987 | 2510 ft | 232 kts | 329° |
| 2026-05-08 09:38 | 33.65922 | 130.40042 | 3099 ft | 244 kts | 329° |
| 2026-05-08 09:38 | 33.67419 | 130.39078 | 3945 ft | 245 kts | 327° |
| 2026-05-08 09:39 | 33.68824 | 130.37927 | 4857 ft | 245 kts | 323° |
| 2026-05-08 09:39 | 33.70173 | 130.36676 | 5713 ft | 244 kts | 322° |
| 2026-05-08 09:39 | 33.71499 | 130.35395 | 6570 ft | 245 kts | 321° |
| 2026-05-08 09:39 | 33.72832 | 130.34099 | 7324 ft | 248 kts | 321° |
| 2026-05-08 09:40 | 33.74181 | 130.32789 | 8071 ft | 251 kts | 321° |
| 2026-05-08 09:40 | 33.75543 | 130.31473 | 8829 ft | 254 kts | 320° |
| 2026-05-08 09:40 | 33.76937 | 130.30136 | 9588 ft | 257 kts | 320° |
| 2026-05-08 09:40 | 33.78343 | 130.28794 | 10259 ft | 263 kts | 319° |
| 2026-05-08 09:41 | 33.79842 | 130.27363 | 10456 ft | 286 kts | 319° |
| 2026-05-08 09:41 | 33.81460 | 130.25822 | 10592 ft | 309 kts | 320° |
| 2026-05-08 09:41 | 33.83181 | 130.24186 | 11013 ft | 319 kts | 319° |
| 2026-05-08 09:41 | 33.84936 | 130.22516 | 11646 ft | 323 kts | 319° |
| 2026-05-08 09:42 | 33.86706 | 130.20833 | 12324 ft | 326 kts | 319° |
| 2026-05-08 09:42 | 33.88496 | 130.19131 | 13016 ft | 329 kts | 318° |
| 2026-05-08 09:42 | 33.90300 | 130.17415 | 13701 ft | 332 kts | 318° |
| 2026-05-08 09:42 | 33.92123 | 130.15678 | 14322 ft | 335 kts | 317° |
| 2026-05-08 09:43 | 33.93956 | 130.13924 | 14949 ft | 337 kts | 317° |
| 2026-05-08 09:43 | 33.95794 | 130.12162 | 15586 ft | 339 kts | 316° |
| 2026-05-08 09:43 | 33.97649 | 130.10386 | 16234 ft | 341 kts | 316° |
| 2026-05-08 09:43 | 33.99510 | 130.08605 | 16884 ft | 343 kts | 316° |
| 2026-05-08 09:44 | 34.01383 | 130.06809 | 17533 ft | 345 kts | 315° |
| 2026-05-08 09:44 | 34.03264 | 130.05005 | 18174 ft | 347 kts | 315° |
| 2026-05-08 09:44 | 34.05155 | 130.03193 | 18725 ft | 349 kts | 315° |
| 2026-05-08 09:44 | 34.07061 | 130.01367 | 19247 ft | 351 kts | 314° |
| 2026-05-08 09:45 | 34.08979 | 129.99527 | 19767 ft | 354 kts | 314° |
| 2026-05-08 09:45 | 34.10915 | 129.97672 | 20286 ft | 357 kts | 314° |
| 2026-05-08 09:45 | 34.12862 | 129.95805 | 20792 ft | 359 kts | 313° |
| 2026-05-08 09:45 | 34.14827 | 129.93918 | 21285 ft | 362 kts | 313° |
| 2026-05-08 09:46 | 34.16800 | 129.92018 | 21771 ft | 364 kts | 313° |
| 2026-05-08 09:46 | 34.18788 | 129.90102 | 22241 ft | 367 kts | 313° |
| 2026-05-08 09:46 | 34.20793 | 129.88169 | 22704 ft | 370 kts | 313° |
| 2026-05-08 09:46 | 34.22809 | 129.86225 | 23163 ft | 372 kts | 312° |
| 2026-05-08 09:47 | 34.24842 | 129.84268 | 23606 ft | 375 kts | 312° |
| 2026-05-08 09:47 | 34.26892 | 129.82296 | 23969 ft | 377 kts | 312° |
| 2026-05-08 09:47 | 34.28952 | 129.80326 | 24342 ft | 380 kts | 312° |
| 2026-05-08 09:47 | 34.31033 | 129.78345 | 24712 ft | 382 kts | 312° |
| 2026-05-08 09:48 | 34.33129 | 129.76351 | 25076 ft | 384 kts | 312° |
| 2026-05-08 09:48 | 34.35231 | 129.74347 | 25433 ft | 386 kts | 312° |
| 2026-05-08 09:48 | 34.37342 | 129.72331 | 25793 ft | 388 kts | 312° |
| 2026-05-08 09:48 | 34.39462 | 129.70299 | 26150 ft | 390 kts | 311° |
| 2026-05-08 09:49 | 34.41594 | 129.68250 | 26506 ft | 392 kts | 311° |
| 2026-05-08 09:49 | 34.43731 | 129.66197 | 26850 ft | 394 kts | 311° |
| 2026-05-08 09:49 | 34.45883 | 129.64124 | 27191 ft | 396 kts | 311° |
| 2026-05-08 09:49 | 34.48040 | 129.62044 | 27527 ft | 398 kts | 311° |
| 2026-05-08 09:50 | 34.50211 | 129.59953 | 27854 ft | 400 kts | 311° |
| 2026-05-08 09:50 | 34.52395 | 129.57855 | 27985 ft | 398 kts | 311° |
| 2026-05-08 09:50 | 34.54546 | 129.55804 | 28003 ft | 390 kts | 311° |
| 2026-05-08 09:51 | 34.58781 | 129.51749 | 28008 ft | 386 kts | 310° |
| 2026-05-08 09:51 | 34.62974 | 129.47696 | 28015 ft | 385 kts | 310° |
| 2026-05-08 09:52 | 34.67163 | 129.43641 | 28012 ft | 385 kts | 310° |
| 2026-05-08 09:52 | 34.71343 | 129.39598 | 28011 ft | 384 kts | 310° |
| 2026-05-08 09:53 | 34.75519 | 129.35554 | 28015 ft | 384 kts | 310° |
| 2026-05-08 09:53 | 34.79693 | 129.31508 | 28018 ft | 384 kts | 310° |
| 2026-05-08 09:54 | 34.83871 | 129.27468 | 28016 ft | 384 kts | 310° |
| 2026-05-08 09:54 | 34.88062 | 129.23432 | 28017 ft | 384 kts | 310° |
| 2026-05-08 09:55 | 34.92225 | 129.19399 | 28011 ft | 384 kts | 310° |
| 2026-05-08 09:55 | 34.96402 | 129.15348 | 28005 ft | 384 kts | 310° |
| 2026-05-08 09:55 | 34.98491 | 129.13324 | 27999 ft | 384 kts | 310° |
| 2026-05-08 09:56 | 35.00585 | 129.11294 | 28001 ft | 384 kts | 310° |
| 2026-05-08 09:56 | 35.02673 | 129.09271 | 27996 ft | 384 kts | 310° |
| 2026-05-08 09:56 | 35.04768 | 129.07237 | 27990 ft | 384 kts | 310° |
| 2026-05-08 09:56 | 35.06857 | 129.05205 | 27985 ft | 384 kts | 310° |
| 2026-05-08 09:57 | 35.11030 | 129.01139 | 27984 ft | 384 kts | 311° |
| 2026-05-08 09:57 | 35.13302 | 128.99324 | 27990 ft | 399 kts | 321° |
| 2026-05-08 09:57 | 35.15814 | 128.97831 | 27995 ft | 401 kts | 322° |
| 2026-05-08 09:58 | 35.18327 | 128.96358 | 27997 ft | 401 kts | 322° |
| 2026-05-08 09:58 | 35.20846 | 128.94885 | 27997 ft | 401 kts | 322° |
| 2026-05-08 09:58 | 35.23362 | 128.93407 | 28000 ft | 401 kts | 322° |
| 2026-05-08 09:58 | 35.25871 | 128.91925 | 28001 ft | 400 kts | 322° |
| 2026-05-08 09:59 | 35.30877 | 128.88955 | 28012 ft | 399 kts | 322° |
| 2026-05-08 09:59 | 35.35862 | 128.86005 | 28024 ft | 398 kts | 322° |
| 2026-05-08 10:00 | 35.40840 | 128.83056 | 28028 ft | 396 kts | 322° |
| 2026-05-08 10:00 | 35.45793 | 128.80117 | 28031 ft | 395 kts | 321° |
| 2026-05-08 10:01 | 35.50727 | 128.77183 | 28037 ft | 393 kts | 321° |
| 2026-05-08 10:01 | 35.55642 | 128.74256 | 28014 ft | 392 kts | 321° |
| 2026-05-08 10:02 | 35.60535 | 128.71335 | 28011 ft | 390 kts | 321° |
| 2026-05-08 10:02 | 35.65410 | 128.68418 | 28009 ft | 390 kts | 321° |
| 2026-05-08 10:03 | 35.70279 | 128.65500 | 28006 ft | 389 kts | 321° |
| 2026-05-08 10:03 | 35.72712 | 128.64044 | 28000 ft | 388 kts | 321° |
| 2026-05-08 10:03 | 35.75137 | 128.62588 | 28010 ft | 389 kts | 321° |
| 2026-05-08 10:04 | 35.79973 | 128.59636 | 28012 ft | 382 kts | 316° |
| 2026-05-08 10:04 | 35.82077 | 128.57778 | 28007 ft | 366 kts | 307° |
| 2026-05-08 10:04 | 35.83902 | 128.55629 | 28000 ft | 362 kts | 305° |
| 2026-05-08 10:05 | 35.87523 | 128.51313 | 28008 ft | 362 kts | 306° |
| 2026-05-08 10:05 | 35.91152 | 128.47006 | 28001 ft | 362 kts | 306° |
| 2026-05-08 10:06 | 35.94775 | 128.42698 | 28015 ft | 361 kts | 306° |
| 2026-05-08 10:06 | 35.96585 | 128.40546 | 27998 ft | 361 kts | 306° |
| 2026-05-08 10:06 | 35.98391 | 128.38395 | 28009 ft | 361 kts | 306° |
| 2026-05-08 10:07 | 36.02004 | 128.34091 | 28016 ft | 360 kts | 306° |
| 2026-05-08 10:07 | 36.05602 | 128.29798 | 28018 ft | 359 kts | 306° |
| 2026-05-08 10:08 | 36.09189 | 128.25504 | 28001 ft | 359 kts | 306° |
| 2026-05-08 10:08 | 36.10981 | 128.23353 | 27994 ft | 359 kts | 306° |
| 2026-05-08 10:08 | 36.12771 | 128.21203 | 27997 ft | 359 kts | 306° |
| 2026-05-08 10:09 | 36.14563 | 128.19052 | 27996 ft | 359 kts | 306° |
| 2026-05-08 10:09 | 36.16357 | 128.16899 | 27995 ft | 359 kts | 306° |
| 2026-05-08 10:09 | 36.18149 | 128.14745 | 27987 ft | 359 kts | 306° |
| 2026-05-08 10:09 | 36.19945 | 128.12586 | 27989 ft | 360 kts | 306° |
| 2026-05-08 10:10 | 36.21742 | 128.10427 | 27994 ft | 360 kts | 306° |
| 2026-05-08 10:10 | 36.23537 | 128.08268 | 27994 ft | 360 kts | 306° |
| 2026-05-08 10:10 | 36.25338 | 128.06109 | 27990 ft | 361 kts | 307° |
| 2026-05-08 10:10 | 36.27387 | 128.04211 | 27995 ft | 377 kts | 319° |
| 2026-05-08 10:11 | 36.29858 | 128.02900 | 27996 ft | 398 kts | 331° |
| 2026-05-08 10:11 | 36.32650 | 128.02298 | 28006 ft | 414 kts | 340° |
| 2026-05-08 10:11 | 36.35526 | 128.01908 | 27995 ft | 416 kts | 340° |
| 2026-05-08 10:11 | 36.38402 | 128.01528 | 27997 ft | 416 kts | 340° |
| 2026-05-08 10:12 | 36.41285 | 128.01150 | 27998 ft | 416 kts | 340° |
| 2026-05-08 10:12 | 36.44169 | 128.00771 | 27996 ft | 417 kts | 340° |
| 2026-05-08 10:12 | 36.47052 | 128.00386 | 27990 ft | 417 kts | 340° |
| 2026-05-08 10:12 | 36.49939 | 127.99994 | 27992 ft | 417 kts | 340° |
| 2026-05-08 10:13 | 36.52821 | 127.99600 | 27994 ft | 418 kts | 340° |
| 2026-05-08 10:13 | 36.55714 | 127.99205 | 27994 ft | 418 kts | 341° |
| 2026-05-08 10:13 | 36.58608 | 127.98810 | 27994 ft | 419 kts | 341° |
| 2026-05-08 10:13 | 36.61505 | 127.98413 | 27997 ft | 419 kts | 341° |
| 2026-05-08 10:14 | 36.67301 | 127.97620 | 28006 ft | 419 kts | 341° |
| 2026-05-08 10:14 | 36.70201 | 127.97223 | 28000 ft | 419 kts | 341° |
| 2026-05-08 10:14 | 36.73098 | 127.96823 | 28001 ft | 419 kts | 341° |
| 2026-05-08 10:15 | 36.78896 | 127.95993 | 28006 ft | 415 kts | 338° |
| 2026-05-08 10:15 | 36.81622 | 127.95069 | 27998 ft | 398 kts | 327° |
| 2026-05-08 10:15 | 36.84042 | 127.93547 | 27946 ft | 381 kts | 316° |
| 2026-05-08 10:16 | 36.86043 | 127.91521 | 27450 ft | 364 kts | 307° |
| 2026-05-08 10:16 | 36.87705 | 127.89191 | 26890 ft | 355 kts | 301° |
| 2026-05-08 10:16 | 36.89122 | 127.86712 | 26319 ft | 349 kts | 298° |
| 2026-05-08 10:16 | 36.90507 | 127.84225 | 25778 ft | 347 kts | 300° |
| 2026-05-08 10:17 | 36.91902 | 127.81773 | 25240 ft | 345 kts | 300° |
| 2026-05-08 10:17 | 36.93296 | 127.79342 | 24703 ft | 344 kts | 301° |
| 2026-05-08 10:17 | 36.94682 | 127.76919 | 24179 ft | 342 kts | 301° |
| 2026-05-08 10:17 | 36.96058 | 127.74502 | 23695 ft | 340 kts | 301° |
| 2026-05-08 10:18 | 36.96981 | 127.72875 | 23327 ft | 339 kts | 301° |
| 2026-05-08 10:18 | 36.98775 | 127.69691 | 22570 ft | 337 kts | 301° |
| 2026-05-08 10:18 | 36.99683 | 127.68073 | 22209 ft | 336 kts | 301° |
| 2026-05-08 10:18 | 37.01452 | 127.64917 | 21544 ft | 334 kts | 302° |
| 2026-05-08 10:19 | 37.02781 | 127.62542 | 21050 ft | 332 kts | 302° |
| 2026-05-08 10:19 | 37.03674 | 127.60948 | 20710 ft | 330 kts | 302° |
| 2026-05-08 10:19 | 37.04990 | 127.58594 | 20196 ft | 329 kts | 302° |
| 2026-05-08 10:20 | 37.07595 | 127.53911 | 19187 ft | 327 kts | 303° |
| 2026-05-08 10:20 | 37.08889 | 127.51583 | 18695 ft | 325 kts | 303° |
| 2026-05-08 10:20 | 37.10179 | 127.49263 | 18191 ft | 324 kts | 303° |
| 2026-05-08 10:20 | 37.11465 | 127.46957 | 17991 ft | 324 kts | 303° |
| 2026-05-08 10:21 | 37.12757 | 127.44643 | 18007 ft | 326 kts | 303° |
| 2026-05-08 10:21 | 37.14056 | 127.42313 | 18009 ft | 326 kts | 303° |
| 2026-05-08 10:21 | 37.15356 | 127.39977 | 18010 ft | 327 kts | 303° |
| 2026-05-08 10:21 | 37.16655 | 127.37641 | 18014 ft | 327 kts | 303° |
| 2026-05-08 10:22 | 37.17957 | 127.35297 | 18015 ft | 327 kts | 303° |
| 2026-05-08 10:22 | 37.19246 | 127.32975 | 17659 ft | 323 kts | 303° |
| 2026-05-08 10:22 | 37.20520 | 127.30676 | 17126 ft | 320 kts | 303° |
| 2026-05-08 10:22 | 37.21787 | 127.28387 | 16608 ft | 318 kts | 303° |
| 2026-05-08 10:23 | 37.23047 | 127.26109 | 16099 ft | 316 kts | 303° |
| 2026-05-08 10:23 | 37.24295 | 127.23853 | 15598 ft | 314 kts | 303° |
| 2026-05-08 10:23 | 37.25536 | 127.21608 | 15068 ft | 312 kts | 303° |
| 2026-05-08 10:23 | 37.26564 | 127.19252 | 14590 ft | 310 kts | 292° |
| 2026-05-08 10:24 | 37.27081 | 127.16621 | 14067 ft | 311 kts | 278° |
| 2026-05-08 10:24 | 37.27125 | 127.13904 | 13535 ft | 311 kts | 273° |
| 2026-05-08 10:24 | 37.27123 | 127.11189 | 12955 ft | 311 kts | 273° |
| 2026-05-08 10:24 | 37.27125 | 127.08478 | 12416 ft | 310 kts | 273° |
| 2026-05-08 10:25 | 37.27127 | 127.05783 | 11881 ft | 309 kts | 273° |
| 2026-05-08 10:25 | 37.27130 | 127.03085 | 11347 ft | 308 kts | 273° |
| 2026-05-08 10:25 | 37.27131 | 127.00413 | 11006 ft | 302 kts | 272° |
| 2026-05-08 10:25 | 37.27128 | 126.97831 | 10878 ft | 289 kts | 272° |
| 2026-05-08 10:26 | 37.27127 | 126.95386 | 10757 ft | 278 kts | 272° |
| 2026-05-08 10:26 | 37.27246 | 126.93000 | 10629 ft | 263 kts | 279° |
| 2026-05-08 10:26 | 37.27453 | 126.90801 | 10518 ft | 243 kts | 279° |
| 2026-05-08 10:26 | 37.27657 | 126.88784 | 10384 ft | 224 kts | 279° |
| 2026-05-08 10:27 | 37.27856 | 126.86878 | 10021 ft | 218 kts | 280° |
| 2026-05-08 10:27 | 37.28051 | 126.85022 | 9528 ft | 217 kts | 279° |
| 2026-05-08 10:27 | 37.28247 | 126.83144 | 8996 ft | 217 kts | 279° |
| 2026-05-08 10:27 | 37.28445 | 126.81238 | 8478 ft | 217 kts | 279° |
| 2026-05-08 10:28 | 37.28624 | 126.79483 | 8011 ft | 217 kts | 279° |
| 2026-05-08 10:28 | 37.28818 | 126.77574 | 7514 ft | 217 kts | 279° |
| 2026-05-08 10:28 | 37.29010 | 126.75691 | 7034 ft | 218 kts | 280° |
| 2026-05-08 10:28 | 37.29201 | 126.73831 | 6560 ft | 218 kts | 280° |
| 2026-05-08 10:29 | 37.29397 | 126.71919 | 6065 ft | 218 kts | 280° |
| 2026-05-08 10:29 | 37.29532 | 126.70581 | 5729 ft | 217 kts | 280° |
| 2026-05-08 10:29 | 37.29716 | 126.68753 | 5298 ft | 215 kts | 280° |
| 2026-05-08 10:29 | 37.29899 | 126.66924 | 4852 ft | 213 kts | 280° |
| 2026-05-08 10:30 | 37.30084 | 126.65082 | 4384 ft | 211 kts | 280° |
| 2026-05-08 10:30 | 37.30269 | 126.63235 | 3954 ft | 208 kts | 280° |
| 2026-05-08 10:30 | 37.30451 | 126.61458 | 3684 ft | 202 kts | 282° |
| 2026-05-08 10:30 | 37.30915 | 126.59912 | 3597 ft | 180 kts | 303° |
| 2026-05-08 10:31 | 37.31721 | 126.58806 | 3427 ft | 170 kts | 322° |
| 2026-05-08 10:31 | 37.32700 | 126.57939 | 3222 ft | 172 kts | 324° |
| 2026-05-08 10:31 | 37.33676 | 126.57075 | 2996 ft | 171 kts | 324° |
| 2026-05-08 10:31 | 37.34637 | 126.56226 | 2776 ft | 171 kts | 324° |
| 2026-05-08 10:32 | 37.35604 | 126.55369 | 2540 ft | 167 kts | 324° |
| 2026-05-08 10:32 | 37.36513 | 126.54564 | 2318 ft | 153 kts | 323° |
| 2026-05-08 10:32 | 37.37358 | 126.53816 | 2146 ft | 146 kts | 323° |
| 2026-05-08 10:32 | 37.38181 | 126.53086 | 1937 ft | 144 kts | 323° |
| 2026-05-08 10:33 | 37.39003 | 126.52357 | 1737 ft | 142 kts | 323° |
| 2026-05-08 10:33 | 37.39809 | 126.51643 | 1559 ft | 140 kts | 323° |
| 2026-05-08 10:33 | 37.40594 | 126.50947 | 1363 ft | 137 kts | 323° |
| 2026-05-08 10:33 | 37.41356 | 126.50270 | 1171 ft | 136 kts | 322° |
| 2026-05-08 10:34 | 37.42130 | 126.49583 | 967 ft | 136 kts | 322° |
| 2026-05-08 10:34 | 37.42904 | 126.48896 | 761 ft | 136 kts | 322° |
| 2026-05-08 10:34 | 37.43672 | 126.48214 | 557 ft | 134 kts | 322° |
| 2026-05-08 10:34 | 37.44440 | 126.47532 | 334 ft | 137 kts | 322° |
| 2026-05-08 10:35 | 37.45214 | 126.46847 | 164 ft | 135 kts | 322° |
| 2026-05-08 10:35 | 37.45989 | 126.46150 | 37 ft | 132 kts | 322° |
| 2026-05-08 10:35 | 37.46617 | 126.45594 | 32 ft | 86 kts | 325° |
| 2026-05-08 10:35 | 37.46967 | 126.45286 | 33 ft | 42 kts | 325° |
| 2026-05-08 10:36 | 37.47178 | 126.45065 | 33 ft | 37 kts | 309° |
| 2026-05-08 10:36 | 37.47263 | 126.44863 | 33 ft | 20 kts | 294° |
| 2026-05-08 10:36 | 37.47329 | 126.44711 | 33 ft | 20 kts | 311° |
| 2026-05-08 10:36 | 37.47372 | 126.44605 | 33 ft | 13 kts | 254° |
| 2026-05-08 10:37 | 37.47319 | 126.44504 | 33 ft | 14 kts | 234° |
| 2026-05-08 10:37 | 37.47248 | 126.44380 | 33 ft | 21 kts | 235° |
| 2026-05-08 10:37 | 37.47170 | 126.44242 | 33 ft | 17 kts | 236° |
| 2026-05-08 10:37 | 37.47118 | 126.44149 | 31 ft | 13 kts | 234° |
| 2026-05-08 10:38 | 37.47061 | 126.44050 | 33 ft | 15 kts | 236° |
| 2026-05-08 10:38 | 37.47022 | 126.43936 | 33 ft | 12 kts | 252° |
| 2026-05-08 10:38 | 37.46990 | 126.43869 | 33 ft | 7 kts | 234° |
| 2026-05-08 10:38 | 37.46981 | 126.43854 | 33 ft | 0 kts | 234° |